createdAt,value
2022-10-22T00:01:01.824Z,18.88
2022-10-22T00:03:28.345Z,18.86
2022-10-22T00:05:54.878Z,18.87
2022-10-22T00:08:21.497Z,18.88
2022-10-22T00:10:48.116Z,18.87
2022-10-22T00:13:15.027Z,18.91
2022-10-22T00:15:41.539Z,18.91
2022-10-22T00:18:08.096Z,18.94
2022-10-22T00:20:35.182Z,18.89
2022-10-22T00:23:01.701Z,18.97
2022-10-22T00:25:28.339Z,18.95
2022-10-22T00:27:54.896Z,18.96
2022-10-22T00:30:21.441Z,18.90
2022-10-22T00:32:47.928Z,18.92
2022-10-22T00:35:14.574Z,18.91
2022-10-22T00:37:41.070Z,18.90
2022-10-22T00:40:08.532Z,18.92
2022-10-22T00:42:35.422Z,18.98
2022-10-22T00:45:09.362Z,18.96
2022-10-22T00:47:41.995Z,18.94
2022-10-22T00:50:14.158Z,18.90
2022-10-22T00:52:41.088Z,18.76
2022-10-22T00:55:08.587Z,18.70
2022-10-22T00:57:36.264Z,18.58
2022-10-22T01:00:03.857Z,18.53
2022-10-22T01:02:30.437Z,18.51
2022-10-22T01:04:56.978Z,18.47
2022-10-22T01:07:24.544Z,18.50
2022-10-22T01:09:51.015Z,18.49
2022-10-22T01:12:43.057Z,18.46
2022-10-22T01:15:20.068Z,18.48
2022-10-22T01:17:56.252Z,18.45
2022-10-22T01:20:34.301Z,18.45
2022-10-22T01:23:35.701Z,18.42
2022-10-22T01:26:25.057Z,18.45
2022-10-22T01:29:03.606Z,18.45
2022-10-22T01:31:32.560Z,18.46
2022-10-22T01:34:01.225Z,18.44
2022-10-22T01:36:29.759Z,18.48
2022-10-22T01:38:56.816Z,18.48
2022-10-22T01:41:23.601Z,18.45
2022-10-22T01:43:50.116Z,18.47
2022-10-22T01:46:22.814Z,18.50
2022-10-22T01:49:12.695Z,18.51
2022-10-22T01:51:55.468Z,18.53
2022-10-22T01:54:27.789Z,18.52
2022-10-22T01:57:36.729Z,18.62
2022-10-22T02:00:09.585Z,18.61
2022-10-22T02:02:40.193Z,18.61
2022-10-22T02:05:36.264Z,18.62
2022-10-22T02:08:08.914Z,18.61
2022-10-22T02:10:39.547Z,18.58
2022-10-22T02:13:12.348Z,18.60
2022-10-22T02:15:40.846Z,18.60
2022-10-22T02:18:09.656Z,18.66
2022-10-22T02:20:38.748Z,18.66
2022-10-22T02:23:05.638Z,18.66
2022-10-22T02:25:36.210Z,18.67
2022-10-22T02:28:16.772Z,18.67
2022-10-22T02:30:47.402Z,18.65
2022-10-22T02:33:22.468Z,18.60
2022-10-22T02:35:51.777Z,18.55
2022-10-22T02:38:19.195Z,18.48
2022-10-22T02:40:46.552Z,18.41
2022-10-22T02:43:13.248Z,18.35
2022-10-22T02:45:40.072Z,18.28
2022-10-22T02:48:06.755Z,18.20
2022-10-22T02:50:33.281Z,18.13
2022-10-22T02:52:59.810Z,18.16
2022-10-22T02:55:26.376Z,18.16
2022-10-22T02:57:52.866Z,18.13
2022-10-22T03:00:19.395Z,18.10
2022-10-22T03:02:45.959Z,18.07
2022-10-22T03:05:12.498Z,18.12
2022-10-22T03:07:39.541Z,18.08
2022-10-22T03:10:07.118Z,18.08
2022-10-22T03:12:33.768Z,18.08
2022-10-22T03:15:00.245Z,18.05
2022-10-22T03:17:26.743Z,18.07
2022-10-22T03:19:53.245Z,18.08
2022-10-22T03:22:27.705Z,18.04
2022-10-22T03:24:58.606Z,18.08
2022-10-22T03:27:28.367Z,18.08
2022-10-22T03:29:56.453Z,18.05
2022-10-22T03:32:22.944Z,18.01
2022-10-22T03:34:49.468Z,18.00
2022-10-22T03:37:16.752Z,17.98
2022-10-22T03:39:43.318Z,17.96
2022-10-22T03:42:10.145Z,17.95
2022-10-22T03:44:40.335Z,17.93
2022-10-22T03:47:06.927Z,17.92
2022-10-22T03:49:33.539Z,17.97
2022-10-22T03:52:09.108Z,17.99
2022-10-22T03:54:36.423Z,18.00
2022-10-22T03:57:05.043Z,18.05
2022-10-22T03:59:38.485Z,18.11
2022-10-22T04:02:05.163Z,18.13
2022-10-22T04:04:31.897Z,18.12
2022-10-22T04:06:58.419Z,18.15
2022-10-22T04:09:24.964Z,18.15
2022-10-22T04:11:51.477Z,18.06
2022-10-22T04:14:17.992Z,18.09
2022-10-22T04:16:44.478Z,18.07
2022-10-22T04:19:10.972Z,18.06
2022-10-22T04:21:37.542Z,18.02
2022-10-22T04:24:04.330Z,17.95
2022-10-22T04:26:30.821Z,17.94
2022-10-22T04:28:57.342Z,17.85
2022-10-22T04:31:25.573Z,17.87
2022-10-22T04:33:57.160Z,17.84
2022-10-22T04:36:24.831Z,17.77
2022-10-22T04:38:57.918Z,17.80
2022-10-22T04:41:27.639Z,17.74
2022-10-22T04:43:55.901Z,17.76
2022-10-22T04:46:23.618Z,17.82
2022-10-22T04:48:51.609Z,17.77
2022-10-22T04:51:20.430Z,17.81
2022-10-22T04:53:47.316Z,17.83
2022-10-22T04:56:20.609Z,17.82
2022-10-22T04:58:52.353Z,17.82
2022-10-22T05:01:24.559Z,17.85
2022-10-22T05:03:53.160Z,17.89
2022-10-22T05:06:23.389Z,17.87
2022-10-22T05:08:56.310Z,17.90
2022-10-22T05:11:27.853Z,17.94
2022-10-22T05:13:58.979Z,17.91
2022-10-22T05:16:25.999Z,17.92
2022-10-22T05:18:53.287Z,17.87
2022-10-22T05:21:21.364Z,17.90
2022-10-22T05:23:49.611Z,17.91
2022-10-22T05:26:19.487Z,17.91
2022-10-22T05:28:47.274Z,17.86
2022-10-22T05:31:14.912Z,17.91
2022-10-22T05:33:42.273Z,17.91
2022-10-22T05:36:13.331Z,17.92
2022-10-22T05:38:39.896Z,17.91
2022-10-22T05:41:07.829Z,17.98
2022-10-22T05:43:35.137Z,18.04
2022-10-22T05:46:08.171Z,18.08
2022-10-22T05:48:35.071Z,18.09
2022-10-22T05:51:05.386Z,18.21
2022-10-22T05:53:33.549Z,18.29
2022-10-22T05:56:04.964Z,18.30
2022-10-22T05:58:31.624Z,18.34
2022-10-22T06:01:03.328Z,18.35
2022-10-22T06:03:29.949Z,18.33
2022-10-22T06:05:56.441Z,18.41
2022-10-22T06:08:22.973Z,18.31
2022-10-22T06:10:49.610Z,18.38
2022-10-22T06:13:16.096Z,18.27
2022-10-22T06:15:43.460Z,18.32
2022-10-22T06:18:10.860Z,18.36
2022-10-22T06:20:37.381Z,18.41
2022-10-22T06:23:03.941Z,18.46
2022-10-22T06:25:30.510Z,18.44
2022-10-22T06:27:57.073Z,18.40
2022-10-22T06:30:23.632Z,18.49
2022-10-22T06:32:50.185Z,18.52
2022-10-22T06:35:16.839Z,18.46
2022-10-22T06:37:43.560Z,18.42
2022-10-22T06:40:11.011Z,18.60
2022-10-22T06:42:37.672Z,18.58
2022-10-22T06:45:06.477Z,18.63
2022-10-22T06:47:33.501Z,18.67
2022-10-22T06:50:00.056Z,18.65
2022-10-22T06:52:26.571Z,18.59
2022-10-22T06:54:53.030Z,18.76
2022-10-22T06:57:19.535Z,18.70
2022-10-22T06:59:46.560Z,18.80
2022-10-22T07:02:13.309Z,18.78
2022-10-22T07:04:39.809Z,18.89
2022-10-22T07:07:06.343Z,18.86
2022-10-22T07:09:32.844Z,18.87
2022-10-22T07:11:59.488Z,18.83
2022-10-22T07:14:26.090Z,18.85
2022-10-22T07:16:52.606Z,19.03
2022-10-22T07:19:19.191Z,19.08
2022-10-22T07:21:45.793Z,19.14
2022-10-22T07:24:12.495Z,19.40
2022-10-22T07:26:39.564Z,19.66
2022-10-22T07:29:06.140Z,19.73
2022-10-22T07:31:32.821Z,19.78
2022-10-22T07:33:59.489Z,19.77
2022-10-22T07:36:26.435Z,19.87
2022-10-22T07:38:58.837Z,19.91
2022-10-22T07:41:26.757Z,20.03
2022-10-22T07:43:53.329Z,20.34
2022-10-22T07:46:20.614Z,20.55
2022-10-22T07:48:47.562Z,20.59
2022-10-22T07:51:14.173Z,20.64
2022-10-22T07:53:40.751Z,20.72
2022-10-22T07:56:08.041Z,20.61
2022-10-22T07:58:35.169Z,20.66
2022-10-22T08:01:03.074Z,20.72
2022-10-22T08:03:29.856Z,20.84
2022-10-22T08:05:56.742Z,21.67
2022-10-22T08:08:25.949Z,22.50
2022-10-22T08:10:58.647Z,22.90
2022-10-22T08:13:26.359Z,22.61
2022-10-22T08:15:56.550Z,22.69
2022-10-22T08:18:24.276Z,23.49
2022-10-22T08:20:51.802Z,23.59
2022-10-22T08:23:18.595Z,23.49
2022-10-22T08:25:45.731Z,23.57
2022-10-22T08:28:12.303Z,23.17
2022-10-22T08:30:40.204Z,23.26
2022-10-22T08:33:06.776Z,23.16
2022-10-22T08:35:33.385Z,23.10
2022-10-22T08:38:00.719Z,23.02
2022-10-22T08:40:40.086Z,22.81
2022-10-22T08:43:21.804Z,22.76
2022-10-22T08:46:06.910Z,22.56
2022-10-22T08:48:58.528Z,22.47
2022-10-22T08:51:28.364Z,22.36
2022-10-22T08:54:28.116Z,22.26
2022-10-22T08:57:09.882Z,22.22
2022-10-22T08:59:58.258Z,22.15
2022-10-22T09:02:38.363Z,22.16
2022-10-22T09:05:22.922Z,22.10
2022-10-22T09:07:50.478Z,22.00
2022-10-22T09:10:21.751Z,22.02
2022-10-22T09:12:48.798Z,21.83
2022-10-22T09:15:16.936Z,21.88
2022-10-22T09:18:11.600Z,21.78
2022-10-22T09:20:48.324Z,21.75
2022-10-22T09:23:39.738Z,21.77
2022-10-22T09:26:15.219Z,21.82
2022-10-22T09:28:42.645Z,21.98
2022-10-22T09:31:12.161Z,22.63
2022-10-22T09:33:40.747Z,23.49
2022-10-22T09:36:08.013Z,23.97
2022-10-22T09:38:40.226Z,24.97
2022-10-22T09:41:06.859Z,24.67
2022-10-22T09:43:35.011Z,24.25
2022-10-22T09:46:07.401Z,23.95
2022-10-22T09:48:35.287Z,23.75
2022-10-22T09:51:24.716Z,23.34
2022-10-22T09:54:01.654Z,23.02
2022-10-22T09:56:38.744Z,23.18
2022-10-22T09:59:06.631Z,23.66
2022-10-22T10:01:40.923Z,24.69
2022-10-22T10:04:10.553Z,24.81
2022-10-22T10:06:40.410Z,24.42
2022-10-22T10:09:19.346Z,24.17
2022-10-22T10:11:53.145Z,23.41
2022-10-22T10:14:28.368Z,23.39
2022-10-22T10:17:05.073Z,23.56
2022-10-22T10:20:03.738Z,23.87
2022-10-22T10:22:55.074Z,23.49
2022-10-22T10:25:45.340Z,24.08
2022-10-22T10:28:20.787Z,24.34
2022-10-22T10:31:04.340Z,24.51
2022-10-22T10:33:51.718Z,24.20
2022-10-22T10:36:20.990Z,24.22
2022-10-22T10:39:02.438Z,23.89
2022-10-22T10:41:38.804Z,24.01
2022-10-22T10:44:29.567Z,23.53
2022-10-22T10:47:28.451Z,23.23
2022-10-22T10:50:18.084Z,23.50
2022-10-22T10:53:15.626Z,23.89
2022-10-22T10:55:52.445Z,23.93
2022-10-22T10:58:34.332Z,24.13
2022-10-22T11:01:20.386Z,24.16
2022-10-22T11:04:03.594Z,23.92
2022-10-22T11:06:33.221Z,24.46
2022-10-22T11:09:07.030Z,24.43
2022-10-22T11:11:38.613Z,24.48
2022-10-22T11:14:38.369Z,25.00
2022-10-22T11:17:14.188Z,24.67
2022-10-22T11:19:53.771Z,25.37
2022-10-22T11:22:27.098Z,25.53
2022-10-22T11:25:01.282Z,25.33
2022-10-22T11:27:41.020Z,24.63
2022-10-22T11:30:17.305Z,25.12
2022-10-22T11:32:48.969Z,25.52
2022-10-22T11:35:25.977Z,25.77
2022-10-22T11:37:55.075Z,25.35
2022-10-22T11:40:29.430Z,25.18
2022-10-22T11:43:05.256Z,25.10
2022-10-22T11:45:36.326Z,24.67
2022-10-22T11:48:16.749Z,24.70
2022-10-22T11:51:01.812Z,24.82
2022-10-22T11:53:38.840Z,24.57
2022-10-22T11:56:09.893Z,24.28
2022-10-22T11:58:50.715Z,24.31
2022-10-22T12:01:29.383Z,24.36
2022-10-22T12:03:58.950Z,24.33
2022-10-22T12:06:27.783Z,24.18
2022-10-22T12:08:54.634Z,24.15
2022-10-22T12:11:40.113Z,24.13
2022-10-22T12:14:30.176Z,23.98
2022-10-22T12:17:12.740Z,23.87
2022-10-22T12:19:45.603Z,23.68
2022-10-22T12:22:18.982Z,23.77
2022-10-22T12:24:53.991Z,23.53
2022-10-22T12:27:54.851Z,23.30
2022-10-22T12:30:25.323Z,23.35
2022-10-22T12:32:56.694Z,23.21
2022-10-22T12:35:26.503Z,23.17
2022-10-22T12:37:56.494Z,22.67
2022-10-22T12:40:26.389Z,22.38
2022-10-22T12:43:01.212Z,22.29
2022-10-22T12:45:30.734Z,22.08
2022-10-22T12:48:00.884Z,21.93
2022-10-22T12:50:40.171Z,21.72
2022-10-22T12:53:13.635Z,21.52
2022-10-22T12:55:41.290Z,21.48
2022-10-22T12:58:08.253Z,21.42
2022-10-22T13:00:36.277Z,21.53
2022-10-22T13:03:06.484Z,21.57
2022-10-22T13:05:38.877Z,21.63
2022-10-22T13:08:17.121Z,21.75
2022-10-22T13:10:51.178Z,21.83
2022-10-22T13:13:36.367Z,21.84
2022-10-22T13:16:24.364Z,21.91
2022-10-22T13:18:52.724Z,21.93
2022-10-22T13:21:35.360Z,21.78
2022-10-22T13:24:18.834Z,21.92
2022-10-22T13:26:50.142Z,22.00
2022-10-22T13:29:19.415Z,22.00
2022-10-22T13:31:53.867Z,21.93
2022-10-22T13:34:24.103Z,21.77
2022-10-22T13:36:51.225Z,21.94
2022-10-22T13:39:23.288Z,21.92
2022-10-22T13:41:50.778Z,21.69
2022-10-22T13:44:20.295Z,21.43
2022-10-22T13:46:48.433Z,21.45
2022-10-22T13:49:20.906Z,21.36
2022-10-22T13:51:47.593Z,21.04
2022-10-22T13:54:17.834Z,20.96
2022-10-22T13:56:44.444Z,21.00
2022-10-22T13:59:11.109Z,21.03
2022-10-22T14:01:38.813Z,21.05
2022-10-22T14:04:07.991Z,21.23
2022-10-22T14:09:11.929Z,21.18
2022-10-22T14:11:38.513Z,21.29
2022-10-22T14:14:08.672Z,21.43
2022-10-22T14:16:37.470Z,21.05
2022-10-22T14:19:07.366Z,21.09
2022-10-22T14:21:37.279Z,21.14
2022-10-22T14:24:07.206Z,21.18
2022-10-22T14:26:35.962Z,21.14
2022-10-22T14:29:11.086Z,21.11
2022-10-22T14:31:43.671Z,21.24
2022-10-22T14:34:12.297Z,21.20
2022-10-22T14:36:39.099Z,21.09
2022-10-22T14:39:05.848Z,21.15
2022-10-22T14:41:32.399Z,21.18
2022-10-22T14:43:59.851Z,21.21
2022-10-22T14:46:26.768Z,21.04
2022-10-22T14:48:53.287Z,21.31
2022-10-22T14:51:21.294Z,21.21
2022-10-22T14:53:48.101Z,21.20
2022-10-22T14:56:18.402Z,21.16
2022-10-22T14:58:45.622Z,21.18
2022-10-22T15:01:12.383Z,21.19
2022-10-22T15:03:38.899Z,21.25
2022-10-22T15:06:06.072Z,21.25
2022-10-22T15:08:33.100Z,21.21
2022-10-22T15:11:05.529Z,21.29
2022-10-22T15:13:33.280Z,21.23
2022-10-22T15:16:00.431Z,21.16
2022-10-22T15:18:28.343Z,21.25
2022-10-22T15:21:00.375Z,21.05
2022-10-22T15:23:27.331Z,21.14
2022-10-22T15:25:54.430Z,21.17
2022-10-22T15:28:21.093Z,21.15
2022-10-22T15:30:56.275Z,21.03
2022-10-22T15:33:23.193Z,21.09
2022-10-22T15:35:50.289Z,21.08
2022-10-22T15:38:17.785Z,21.04
2022-10-22T15:40:44.537Z,20.79
2022-10-22T15:43:11.507Z,20.99
2022-10-22T15:45:38.504Z,20.79
2022-10-22T15:48:05.536Z,20.92
2022-10-22T15:50:32.293Z,20.84
2022-10-22T15:52:59.028Z,20.72
2022-10-22T15:55:25.691Z,20.72
2022-10-22T15:57:57.126Z,20.54
2022-10-22T16:00:25.900Z,20.56
2022-10-22T16:02:54.275Z,20.55
2022-10-22T16:05:20.936Z,20.46
2022-10-22T16:07:47.571Z,20.35
2022-10-22T16:10:14.577Z,20.35
2022-10-22T16:12:41.519Z,20.32
2022-10-22T16:15:09.640Z,20.27
2022-10-22T16:17:36.196Z,20.20
2022-10-22T16:20:03.179Z,20.03
2022-10-22T16:22:29.742Z,20.05
2022-10-22T16:24:56.286Z,19.96
2022-10-22T16:27:22.833Z,19.95
2022-10-22T16:29:49.375Z,19.89
2022-10-22T16:32:16.782Z,19.76
2022-10-22T16:34:43.320Z,19.73
2022-10-22T16:37:10.355Z,19.61
2022-10-22T16:39:37.576Z,19.54
2022-10-22T16:42:04.493Z,19.46
2022-10-22T16:44:31.025Z,19.52
2022-10-22T16:46:57.546Z,19.44
2022-10-22T16:49:24.155Z,19.42
2022-10-22T16:51:50.723Z,19.37
2022-10-22T16:54:17.674Z,19.20
2022-10-22T16:56:44.251Z,19.16
2022-10-22T16:59:10.817Z,19.25
2022-10-22T17:01:40.982Z,19.10
2022-10-22T17:04:08.497Z,19.07
2022-10-22T17:06:35.387Z,19.00
2022-10-22T17:09:01.997Z,19.03
2022-10-22T17:11:34.668Z,18.87
2022-10-22T17:14:02.112Z,18.91
2022-10-22T17:16:28.752Z,18.86
2022-10-22T17:18:55.723Z,18.74
2022-10-22T17:21:23.433Z,18.61
2022-10-22T17:23:54.490Z,18.63
2022-10-22T17:26:22.831Z,18.42
2022-10-22T17:28:53.494Z,18.17
2022-10-22T17:31:25.967Z,18.28
2022-10-22T17:33:54.953Z,18.11
2022-10-22T17:36:22.980Z,18.01
2022-10-22T17:38:52.454Z,18.01
2022-10-22T17:41:21.893Z,17.76
2022-10-22T17:43:48.809Z,17.87
2022-10-22T17:46:21.398Z,17.79
2022-10-22T17:48:53.279Z,17.99
2022-10-22T17:51:20.668Z,17.90
2022-10-22T17:53:47.707Z,17.91
2022-10-22T17:56:16.206Z,17.88
2022-10-22T17:58:42.772Z,17.81
2022-10-22T18:01:20.588Z,17.63
2022-10-22T18:03:47.560Z,17.60
2022-10-22T18:06:14.448Z,17.56
2022-10-22T18:08:41.413Z,17.39
2022-10-22T18:11:14.580Z,17.41
2022-10-22T18:13:41.310Z,17.36
2022-10-22T18:16:08.063Z,17.40
2022-10-22T18:18:35.773Z,17.34
2022-10-22T18:21:02.651Z,17.34
2022-10-22T18:23:31.765Z,17.26
2022-10-22T18:25:58.298Z,17.19
2022-10-22T18:28:25.100Z,17.14
2022-10-22T18:30:52.089Z,17.24
2022-10-22T18:33:19.590Z,17.26
2022-10-22T18:35:46.744Z,17.30
2022-10-22T18:38:13.955Z,17.44
2022-10-22T18:40:46.750Z,17.41
2022-10-22T18:43:13.591Z,17.22
2022-10-22T18:45:48.454Z,17.31
2022-10-22T18:48:17.616Z,17.35
2022-10-22T18:50:45.649Z,17.35
2022-10-22T18:53:13.935Z,17.29
2022-10-22T18:55:40.863Z,17.10
2022-10-22T18:58:07.605Z,17.04
2022-10-22T19:00:38.593Z,17.05
2022-10-22T19:03:05.367Z,16.93
2022-10-22T19:05:32.176Z,16.96
2022-10-22T19:07:58.793Z,16.85
2022-10-22T19:10:25.404Z,16.91
2022-10-22T19:12:52.108Z,16.97
2022-10-22T19:15:18.736Z,16.93
2022-10-22T19:17:45.773Z,16.78
2022-10-22T19:20:13.151Z,16.90
2022-10-22T19:22:39.762Z,16.82
2022-10-22T19:25:09.700Z,16.84
2022-10-22T19:27:39.681Z,16.87
2022-10-22T19:30:07.179Z,16.81
2022-10-22T19:32:33.902Z,16.84
2022-10-22T19:35:00.501Z,16.82
2022-10-22T19:37:27.032Z,16.88
2022-10-22T19:39:54.779Z,16.79
2022-10-22T19:42:21.331Z,16.78
2022-10-22T19:44:47.827Z,16.76
2022-10-22T19:47:15.992Z,16.57
2022-10-22T19:49:42.653Z,16.61
2022-10-22T19:52:09.279Z,16.61
2022-10-22T19:54:40.621Z,16.64
2022-10-22T19:57:07.936Z,16.62
2022-10-22T19:59:34.528Z,16.62
2022-10-22T20:02:01.166Z,16.60
2022-10-22T20:04:28.099Z,16.68
2022-10-22T20:06:55.160Z,16.62
2022-10-22T20:09:21.852Z,16.68
2022-10-22T20:11:48.359Z,16.71
2022-10-22T20:14:15.184Z,16.76
2022-10-22T20:16:41.910Z,16.72
2022-10-22T20:19:08.598Z,16.76
2022-10-22T20:21:35.590Z,16.78
2022-10-22T20:24:02.108Z,16.76
2022-10-22T20:26:28.883Z,16.77
2022-10-22T20:28:57.357Z,16.86
2022-10-22T20:31:26.696Z,16.83
2022-10-22T20:33:57.120Z,16.88
2022-10-22T20:36:24.761Z,16.84
2022-10-22T20:38:51.939Z,16.91
2022-10-22T20:41:23.077Z,16.95
2022-10-22T20:43:51.529Z,16.97
2022-10-22T20:46:26.867Z,16.95
2022-10-22T20:48:56.507Z,16.97
2022-10-22T20:51:23.196Z,16.89
2022-10-22T20:53:50.780Z,16.75
2022-10-22T20:56:18.361Z,16.82
2022-10-22T20:58:48.608Z,16.79
2022-10-22T21:01:24.310Z,16.71
2022-10-22T21:03:52.447Z,16.73
2022-10-22T21:06:23.168Z,16.82
2022-10-22T21:08:50.688Z,16.73
2022-10-22T21:11:18.248Z,16.94
2022-10-22T21:13:44.744Z,17.01
2022-10-22T21:16:13.634Z,17.05
2022-10-22T21:18:40.238Z,17.00
2022-10-22T21:21:08.053Z,17.16
2022-10-22T21:23:36.184Z,17.18
2022-10-22T21:26:02.991Z,17.23
2022-10-22T21:30:57.239Z,17.27
2022-10-22T21:33:23.843Z,17.31
2022-10-22T21:35:54.899Z,17.36
2022-10-22T21:38:23.038Z,17.39
2022-10-22T21:40:50.260Z,17.43
2022-10-22T21:43:17.667Z,17.47
2022-10-22T21:45:44.687Z,17.54
2022-10-22T21:48:15.189Z,17.56
2022-10-22T21:50:43.696Z,17.55
2022-10-22T21:53:12.069Z,17.60
2022-10-22T21:55:40.367Z,17.64
2022-10-22T21:58:07.735Z,17.65
2022-10-22T22:00:35.238Z,17.72
2022-10-22T22:03:01.989Z,17.70
2022-10-22T22:05:29.574Z,17.72
2022-10-22T22:07:56.225Z,17.75
2022-10-22T22:10:23.193Z,17.79
2022-10-22T22:12:52.211Z,17.85
2022-10-22T22:15:21.875Z,17.96
2022-10-22T22:17:48.398Z,18.00
2022-10-22T22:20:15.103Z,18.10
2022-10-22T22:22:42.084Z,18.15
2022-10-22T22:25:08.971Z,18.23
2022-10-22T22:27:35.512Z,18.28
2022-10-22T22:30:02.089Z,18.31
2022-10-22T22:32:28.611Z,18.34
2022-10-22T22:34:55.127Z,18.38
2022-10-22T22:37:21.678Z,18.38
2022-10-22T22:39:48.191Z,18.30
2022-10-22T22:42:14.702Z,18.27
2022-10-22T22:44:41.227Z,18.20
2022-10-22T22:47:07.809Z,18.11
2022-10-22T22:49:35.606Z,18.13
2022-10-22T22:52:02.167Z,18.10
2022-10-22T22:54:28.666Z,18.03
2022-10-22T22:56:55.262Z,18.09
2022-10-22T22:59:22.228Z,18.10
2022-10-22T23:01:50.093Z,18.09
2022-10-22T23:04:22.770Z,18.10
2022-10-22T23:06:50.608Z,18.13
2022-10-22T23:11:50.752Z,18.25
2022-10-22T23:14:19.133Z,18.33
2022-10-22T23:16:48.812Z,18.43
2022-10-22T23:19:17.227Z,18.45
2022-10-22T23:21:54.883Z,18.46
2022-10-22T23:24:24.757Z,18.50
2022-10-22T23:26:52.965Z,18.47
2022-10-22T23:29:22.609Z,18.44
2022-10-22T23:31:49.954Z,18.44
2022-10-22T23:34:21.934Z,18.45
2022-10-22T23:36:49.433Z,18.41
2022-10-22T23:39:20.244Z,18.35
2022-10-22T23:41:47.139Z,18.32
2022-10-22T23:44:13.965Z,18.25
2022-10-22T23:46:40.967Z,18.24
2022-10-22T23:49:09.389Z,18.15
2022-10-22T23:51:36.262Z,18.09
2022-10-22T23:54:05.659Z,18.04
2022-10-22T23:56:32.655Z,18.02
2022-10-22T23:58:59.518Z,18.02
